Time;durP1;ratioP1;P1;durP2;ratioP2;P2;SDS_P1;SDS_P2;PMS_P1;PMS_P2;Temp;Humidity;BMP_temperature;BMP_pressure;BME280_temperature;BME280_humidity;BME280_pressure;Samples;Min_cycle;Max_cycle;Signal;HPM_P1;HPM_P2
2022/05/03 00:01:02;;;;;;;0.10;0.10;;;;;;;;;;1839421;77;26605;-49
2022/05/03 00:03:31;;;;;;;0.00;0.00;;;;;;;;;;1835461;78;26281;-44
2022/05/03 00:06:02;;;;;;;0.00;0.00;;;;;;;;;;1840179;77;26339;-48
2022/05/03 00:08:34;;;;;;;0.00;0.00;;;;;;;;;;1847287;76;26373;-49
2022/05/03 00:11:02;;;;;;;0.20;0.20;;;;;;;;;;1853677;77;26295;-49
2022/05/03 00:13:31;;;;;;;0.00;0.00;;;;;;;;;;1852645;76;26245;-44
2022/05/03 00:15:59;;;;;;;0.10;0.10;;;;;;;;;;1852336;77;26405;-48
2022/05/03 00:18:26;;;;;;;0.15;0.15;;;;;;;;;;1842433;77;26264;-52
2022/05/03 00:20:54;;;;;;;0.00;0.00;;;;;;;;;;1842664;77;26263;-48
2022/05/03 00:23:22;;;;;;;0.05;0.05;;;;;;;;;;1853928;77;26785;-48
2022/05/03 00:25:51;;;;;;;0.10;0.10;;;;;;;;;;1851186;76;26268;-48
2022/05/03 00:28:19;;;;;;;0.10;0.10;;;;;;;;;;1840194;75;26285;-47
2022/05/03 00:30:49;;;;;;;0.47;0.20;;;;;;;;;;1851340;77;26272;-48
2022/05/03 00:33:16;;;;;;;0.10;0.10;;;;;;;;;;1853880;77;26252;-43
2022/05/03 00:35:44;;;;;;;0.10;0.10;;;;;;;;;;1853297;75;26326;-44
2022/05/03 00:38:11;;;;;;;0.05;0.05;;;;;;;;;;1882385;75;26712;-49
2022/05/03 00:40:44;;;;;;;0.00;0.00;;;;;;;;;;1853907;77;26634;-45
2022/05/03 00:43:10;;;;;;;0.00;0.00;;;;;;;;;;1853012;77;26410;-46
2022/05/03 00:45:45;;;;;;;0.10;0.10;;;;;;;;;;1847421;77;26350;-45
2022/05/03 00:48:20;;;;;;;0.15;0.10;;;;;;;;;;1839901;78;26288;-47
2022/05/03 00:50:54;;;;;;;0.00;0.00;;;;;;;;;;1852495;77;26365;-51
2022/05/03 00:53:23;;;;;;;0.00;0.00;;;;;;;;;;1852109;77;26252;-47
2022/05/03 00:56:09;;;;;;;0.08;0.08;;;;;;;;;;1853826;77;26760;-48
2022/05/03 00:58:37;;;;;;;0.28;0.10;;;;;;;;;;1843331;77;26287;-46
2022/05/03 01:01:06;;;;;;;0.00;0.00;;;;;;;;;;1831145;77;26739;-45
2022/05/03 01:03:51;;;;;;;0.10;0.10;;;;;;;;;;1832312;78;26271;-44
2022/05/03 01:06:32;;;;;;;0.00;0.00;;;;;;;;;;1832135;78;26265;-45
2022/05/03 01:09:01;;;;;;;0.10;0.10;;;;;;;;;;1830759;78;26260;-46
2022/05/03 01:11:32;;;;;;;0.10;0.10;;;;;;;;;;1833754;77;26272;-44
2022/05/03 01:14:13;;;;;;;0.00;0.00;;;;;;;;;;1864361;77;26378;-46
2022/05/03 01:16:42;;;;;;;0.10;0.10;;;;;;;;;;1855493;77;26332;-50
2022/05/03 01:19:29;;;;;;;0.13;0.10;;;;;;;;;;1841833;77;26252;-50
2022/05/03 01:22:10;;;;;;;0.00;0.00;;;;;;;;;;1831721;78;26200;-48
2022/05/03 01:24:39;;;;;;;0.05;0.00;;;;;;;;;;1832592;77;26256;-45
2022/05/03 01:27:16;;;;;;;0.00;0.00;;;;;;;;;;1852720;77;26259;-47
2022/05/03 01:29:46;;;;;;;0.10;0.10;;;;;;;;;;1809192;79;26334;-46
2022/05/03 01:32:15;;;;;;;2.08;0.00;;;;;;;;;;1848526;77;26276;-44
2022/05/03 01:34:44;;;;;;;0.10;0.10;;;;;;;;;;1845098;77;26288;-47
2022/05/03 01:37:12;;;;;;;0.00;0.00;;;;;;;;;;1853193;77;26327;-44
2022/05/03 01:39:50;;;;;;;0.10;0.10;;;;;;;;;;1852084;76;26256;-47
2022/05/03 01:42:19;;;;;;;0.00;0.00;;;;;;;;;;1852378;77;26243;-47
2022/05/03 01:45:05;;;;;;;0.10;0.10;;;;;;;;;;1852694;76;26334;-47
2022/05/03 01:47:50;;;;;;;0.10;0.10;;;;;;;;;;1862191;76;26358;-45
2022/05/03 01:50:22;;;;;;;0.20;0.20;;;;;;;;;;1825708;76;26344;-50
2022/05/03 01:52:56;;;;;;;0.65;0.08;;;;;;;;;;1820840;79;26579;-52
2022/05/03 01:55:25;;;;;;;0.30;0.10;;;;;;;;;;1822440;79;26667;-48
2022/05/03 01:58:03;;;;;;;0.08;0.08;;;;;;;;;;1851424;75;26260;-45
2022/05/03 02:00:32;;;;;;;0.08;0.08;;;;;;;;;;1849209;76;26330;-49
2022/05/03 02:03:16;;;;;;;0.15;0.15;;;;;;;;;;1842553;78;26732;-48
2022/05/03 02:05:51;;;;;;;0.05;0.05;;;;;;;;;;1841719;78;26284;-44
2022/05/03 02:08:20;;;;;;;1.50;0.10;;;;;;;;;;1851695;76;26313;-45
2022/05/03 02:10:52;;;;;;;0.10;0.10;;;;;;;;;;1884448;76;26281;-45
2022/05/03 02:14:44;;;;;;;0.00;0.00;;;;;;;;;;1883679;76;26799;-47
2022/05/03 02:16:09;;;;;;;0.55;0.10;;;;;;;;;;1856880;76;26374;-50
2022/05/03 02:18:37;;;;;;;0.10;0.10;;;;;;;;;;1914668;75;26246;-46
2022/05/03 02:21:15;;;;;;;0.00;0.00;;;;;;;;;;1914976;74;26825;-44
2022/05/03 02:23:53;;;;;;;0.17;0.17;;;;;;;;;;1914839;75;26273;-47
2022/05/03 02:26:31;;;;;;;0.10;0.10;;;;;;;;;;1913441;75;26250;-47
2022/05/03 02:29:00;;;;;;;0.03;0.03;;;;;;;;;;1912530;75;26269;-48
2022/05/03 02:31:40;;;;;;;0.10;0.10;;;;;;;;;;1914583;75;26265;-45
2022/05/03 02:34:13;;;;;;;0.20;0.20;;;;;;;;;;1894389;75;26312;-51
2022/05/03 02:36:45;;;;;;;0.00;0.00;;;;;;;;;;1881796;75;26269;-46
2022/05/03 02:39:13;;;;;;;0.00;0.00;;;;;;;;;;1880462;75;26272;-44
2022/05/03 02:41:42;;;;;;;0.10;0.10;;;;;;;;;;1882898;73;26342;-49
2022/05/03 02:44:11;;;;;;;0.10;0.10;;;;;;;;;;1888769;75;26521;-48
2022/05/03 02:46:40;;;;;;;0.20;0.20;;;;;;;;;;1883902;75;26304;-49
2022/05/03 02:49:14;;;;;;;0.10;0.10;;;;;;;;;;1845042;78;26291;-48
2022/05/03 02:51:49;;;;;;;0.10;0.10;;;;;;;;;;1914139;75;26251;-47
2022/05/03 02:54:18;;;;;;;0.05;0.03;;;;;;;;;;1918250;74;26731;-48
2022/05/03 02:56:55;;;;;;;0.17;0.17;;;;;;;;;;1914004;74;26748;-50
2022/05/03 03:01:47;;;;;;;0.10;0.10;;;;;;;;;;1898468;74;26395;-48
2022/05/03 03:02:07;;;;;;;0.33;0.20;;;;;;;;;;1875436;76;26737;-48
2022/05/03 03:04:40;;;;;;;0.13;0.13;;;;;;;;;;1895731;74;26186;-47
2022/05/03 03:07:05;;;;;;;0.10;0.10;;;;;;;;;;1913645;75;26792;-47
2022/05/03 03:09:40;;;;;;;0.10;0.10;;;;;;;;;;1915075;74;26298;-47
2022/05/03 03:12:15;;;;;;;0.15;0.15;;;;;;;;;;1914865;75;26296;-49
2022/05/03 03:14:50;;;;;;;0.20;0.20;;;;;;;;;;1913617;75;26227;-51
2022/05/03 03:17:19;;;;;;;0.15;0.15;;;;;;;;;;1917201;74;26541;-47
2022/05/03 03:19:48;;;;;;;0.03;0.03;;;;;;;;;;1917717;74;26315;-47
2022/05/03 03:22:16;;;;;;;0.33;0.10;;;;;;;;;;1915367;74;26344;-44
2022/05/03 03:24:43;;;;;;;0.10;0.10;;;;;;;;;;1914978;75;26243;-50
2022/05/03 03:27:11;;;;;;;0.10;0.10;;;;;;;;;;1908225;74;26226;-45
2022/05/03 03:29:40;;;;;;;0.05;0.05;;;;;;;;;;1895673;75;26203;-45
2022/05/03 03:32:08;;;;;;;0.00;0.00;;;;;;;;;;1900383;75;26349;-50
2022/05/03 03:34:41;;;;;;;0.57;0.10;;;;;;;;;;1900180;75;26320;-50
2022/05/03 03:37:07;;;;;;;1.82;0.15;;;;;;;;;;1899101;75;26913;-48
2022/05/03 03:39:39;;;;;;;0.10;0.10;;;;;;;;;;1912164;74;27101;-47
2022/05/03 03:42:06;;;;;;;0.20;0.20;;;;;;;;;;1906631;74;26303;-51
2022/05/03 03:44:34;;;;;;;0.00;0.00;;;;;;;;;;1939797;74;26235;-44
2022/05/03 03:47:03;;;;;;;0.15;0.13;;;;;;;;;;1915962;73;26915;-46
2022/05/03 03:49:30;;;;;;;0.05;0.05;;;;;;;;;;1915959;74;26257;-46
2022/05/03 03:51:58;;;;;;;0.10;0.10;;;;;;;;;;1920786;74;26241;-48
2022/05/03 03:54:26;;;;;;;0.47;0.15;;;;;;;;;;1920819;74;26241;-48
2022/05/03 03:56:53;;;;;;;0.00;0.00;;;;;;;;;;1904437;74;26803;-52
2022/05/03 03:59:21;;;;;;;0.20;0.20;;;;;;;;;;1911762;74;26305;-46
2022/05/03 04:01:49;;;;;;;0.10;0.10;;;;;;;;;;1854107;77;26308;-50
2022/05/03 04:04:20;;;;;;;0.28;0.20;;;;;;;;;;1855808;76;26288;-49
2022/05/03 04:06:48;;;;;;;0.10;0.10;;;;;;;;;;1880771;76;26857;-51
2022/05/03 04:09:15;;;;;;;0.25;0.10;;;;;;;;;;1873030;76;26230;-44
2022/05/03 04:11:44;;;;;;;0.10;0.10;;;;;;;;;;1871179;76;26253;-50
2022/05/03 04:14:12;;;;;;;0.20;0.20;;;;;;;;;;1858987;76;26319;-45
2022/05/03 04:16:40;;;;;;;0.62;0.20;;;;;;;;;;1859385;76;27434;-46
2022/05/03 04:19:08;;;;;;;0.00;0.00;;;;;;;;;;1825061;77;26266;-47
2022/05/03 04:21:35;;;;;;;0.10;0.10;;;;;;;;;;1855681;77;26291;-44
2022/05/03 04:24:03;;;;;;;0.20;0.20;;;;;;;;;;1862500;76;26266;-49
2022/05/03 04:26:30;;;;;;;2.00;0.20;;;;;;;;;;1872715;76;26273;-50
2022/05/03 04:28:58;;;;;;;0.10;0.10;;;;;;;;;;1878926;76;26268;-48
2022/05/03 04:31:29;;;;;;;0.10;0.10;;;;;;;;;;1887266;76;26259;-45
2022/05/03 04:33:57;;;;;;;1.17;0.10;;;;;;;;;;1887253;76;26720;-47
2022/05/03 04:36:29;;;;;;;0.75;0.23;;;;;;;;;;1886496;74;26278;-45
2022/05/03 04:38:57;;;;;;;1.10;0.20;;;;;;;;;;1884147;74;26629;-45
2022/05/03 04:41:24;;;;;;;0.55;0.25;;;;;;;;;;1887499;74;26288;-47
2022/05/03 04:43:51;;;;;;;5.00;0.40;;;;;;;;;;1881164;74;26313;-44
2022/05/03 04:46:19;;;;;;;0.20;0.20;;;;;;;;;;1889875;74;26262;-44
2022/05/03 04:48:46;;;;;;;1.10;0.33;;;;;;;;;;1874752;74;26267;-49
2022/05/03 04:51:18;;;;;;;3.22;0.40;;;;;;;;;;1878043;74;26535;-49
2022/05/03 04:53:46;;;;;;;0.50;0.28;;;;;;;;;;1892710;74;26254;-48
2022/05/03 04:56:17;;;;;;;2.35;0.30;;;;;;;;;;1887866;74;26305;-47
2022/05/03 04:58:45;;;;;;;1.87;0.45;;;;;;;;;;1886880;74;27358;-52
2022/05/03 05:01:12;;;;;;;1.57;0.42;;;;;;;;;;1876051;75;26235;-44
2022/05/03 05:03:40;;;;;;;2.67;0.60;;;;;;;;;;1877747;75;26257;-44
2022/05/03 05:06:08;;;;;;;3.40;0.70;;;;;;;;;;1883829;75;26708;-48
2022/05/03 05:08:36;;;;;;;4.72;0.70;;;;;;;;;;1873660;75;26299;-51
2022/05/03 05:11:04;;;;;;;2.83;0.70;;;;;;;;;;1877207;75;26827;-45
2022/05/03 05:13:32;;;;;;;1.82;0.70;;;;;;;;;;1872920;75;26721;-47
2022/05/03 05:15:59;;;;;;;2.47;0.82;;;;;;;;;;1878770;75;26244;-48
2022/05/03 05:18:27;;;;;;;2.20;0.72;;;;;;;;;;1876687;75;26225;-49
2022/05/03 05:20:55;;;;;;;3.70;0.90;;;;;;;;;;1869377;75;26225;-44
2022/05/03 05:23:22;;;;;;;0.98;0.90;;;;;;;;;;1865489;75;26680;-47
2022/05/03 05:25:50;;;;;;;1.35;0.62;;;;;;;;;;1845061;76;26276;-46
2022/05/03 05:28:18;;;;;;;3.72;1.00;;;;;;;;;;1877999;76;26709;-50
2022/05/03 05:30:46;;;;;;;1.70;0.70;;;;;;;;;;1880164;75;26248;-49
2022/05/03 05:33:13;;;;;;;1.22;0.70;;;;;;;;;;1904542;74;26336;-44
2022/05/03 05:35:41;;;;;;;1.15;0.65;;;;;;;;;;1910203;74;26248;-45
2022/05/03 05:38:08;;;;;;;0.70;0.70;;;;;;;;;;1912948;74;26808;-45
2022/05/03 05:40:36;;;;;;;1.55;0.78;;;;;;;;;;1930461;74;26762;-45
2022/05/03 05:43:03;;;;;;;2.60;0.80;;;;;;;;;;1903555;73;26367;-49
2022/05/03 05:45:31;;;;;;;1.55;0.70;;;;;;;;;;1916992;73;26615;-50
2022/05/03 05:47:58;;;;;;;0.70;0.57;;;;;;;;;;1918756;73;26255;-44
2022/05/03 05:50:27;;;;;;;0.45;0.42;;;;;;;;;;1922649;73;26192;-46
2022/05/03 05:55:42;;;;;;;0.60;0.50;;;;;;;;;;1923633;73;26296;-45
2022/05/03 05:58:09;;;;;;;1.35;0.60;;;;;;;;;;1894273;74;26343;-48
2022/05/03 06:00:37;;;;;;;1.65;0.72;;;;;;;;;;1906152;74;26276;-44
2022/05/03 06:03:05;;;;;;;1.50;0.60;;;;;;;;;;1895252;73;26353;-45
2022/05/03 06:05:33;;;;;;;1.77;0.72;;;;;;;;;;1904511;73;26258;-47
2022/05/03 06:08:00;;;;;;;0.37;0.37;;;;;;;;;;1858134;75;26793;-50
2022/05/03 06:10:28;;;;;;;0.90;0.60;;;;;;;;;;1869302;75;26328;-48
2022/05/03 06:12:55;;;;;;;2.17;0.60;;;;;;;;;;1870006;75;26757;-54
2022/05/03 06:15:22;;;;;;;0.60;0.60;;;;;;;;;;1872086;75;26807;-56
2022/05/03 06:17:50;;;;;;;1.30;0.65;;;;;;;;;;1875227;75;26765;-49
2022/05/03 06:20:17;;;;;;;0.78;0.55;;;;;;;;;;1886575;75;26725;-51
2022/05/03 06:22:45;;;;;;;1.22;0.50;;;;;;;;;;1886006;75;26250;-51
2022/05/03 06:25:12;;;;;;;0.50;0.50;;;;;;;;;;1877859;75;26281;-54
2022/05/03 06:27:39;;;;;;;0.65;0.50;;;;;;;;;;1881410;75;26249;-45
2022/05/03 06:30:08;;;;;;;0.40;0.40;;;;;;;;;;1907713;74;26665;-49
2022/05/03 06:32:40;;;;;;;1.00;0.47;;;;;;;;;;1904353;74;26243;-44
2022/05/03 06:35:07;;;;;;;1.30;0.50;;;;;;;;;;1913512;74;26363;-46
2022/05/03 06:37:39;;;;;;;3.55;0.50;;;;;;;;;;1914583;74;26324;-44
2022/05/03 06:40:08;;;;;;;0.25;0.25;;;;;;;;;;1877811;75;26265;-46
2022/05/03 06:42:40;;;;;;;0.40;0.40;;;;;;;;;;1881796;75;26236;-43
2022/05/03 06:45:08;;;;;;;2.37;0.40;;;;;;;;;;1880256;75;26311;-44
2022/05/03 06:47:35;;;;;;;0.30;0.30;;;;;;;;;;1883755;74;26265;-49
2022/05/03 06:50:03;;;;;;;0.30;0.30;;;;;;;;;;1914192;74;26776;-46
2022/05/03 06:52:30;;;;;;;0.30;0.30;;;;;;;;;;1913451;74;26277;-47
2022/05/03 06:54:57;;;;;;;0.65;0.42;;;;;;;;;;1910409;74;26265;-43
2022/05/03 06:57:25;;;;;;;0.72;0.30;;;;;;;;;;1906616;74;26249;-48
2022/05/03 06:59:53;;;;;;;0.40;0.30;;;;;;;;;;1916067;74;26293;-45
2022/05/03 07:02:20;;;;;;;0.68;0.30;;;;;;;;;;1919265;74;26248;-44
2022/05/03 07:04:47;;;;;;;0.45;0.40;;;;;;;;;;1919350;73;26371;-46
2022/05/03 07:07:14;;;;;;;0.50;0.40;;;;;;;;;;1923845;74;26296;-46
2022/05/03 07:09:42;;;;;;;0.33;0.30;;;;;;;;;;1921872;74;26269;-42
2022/05/03 07:12:10;;;;;;;0.30;0.20;;;;;;;;;;1923059;73;26258;-43
2022/05/03 07:14:38;;;;;;;0.40;0.40;;;;;;;;;;1919600;74;26647;-41
2022/05/03 07:17:06;;;;;;;0.85;0.40;;;;;;;;;;1918849;74;26276;-42
2022/05/03 07:25:04;;;;;;;0.62;0.30;;;;;;;;;;1925949;73;26313;-48
2022/05/03 07:27:33;;;;;;;0.30;0.30;;;;;;;;;;1920669;73;26198;-51
2022/05/03 07:30:00;;;;;;;0.95;0.30;;;;;;;;;;1921583;73;26234;-44
2022/05/03 07:32:27;;;;;;;1.35;0.62;;;;;;;;;;1921366;74;26291;-42
2022/05/03 07:34:55;;;;;;;0.30;0.30;;;;;;;;;;1924237;74;26183;-48
2022/05/03 07:37:22;;;;;;;0.30;0.30;;;;;;;;;;1931096;74;26327;-44
2022/05/03 07:39:49;;;;;;;0.60;0.40;;;;;;;;;;1924479;74;26250;-43
2022/05/03 07:42:16;;;;;;;0.40;0.37;;;;;;;;;;1923928;74;26310;-44
2022/05/03 07:44:44;;;;;;;0.30;0.30;;;;;;;;;;1923351;74;26323;-44
2022/05/03 07:47:11;;;;;;;0.25;0.25;;;;;;;;;;1923610;74;26226;-41
2022/05/03 07:49:38;;;;;;;0.25;0.25;;;;;;;;;;1905570;74;26283;-43
2022/05/03 07:52:06;;;;;;;0.30;0.30;;;;;;;;;;1924135;74;26197;-47
2022/05/03 07:54:34;;;;;;;2.20;0.40;;;;;;;;;;1915674;73;26238;-42
2022/05/03 07:57:02;;;;;;;0.30;0.30;;;;;;;;;;1914619;74;26766;-41
2022/05/03 07:59:29;;;;;;;1.00;0.45;;;;;;;;;;1907274;73;26313;-42
2022/05/03 08:01:56;;;;;;;0.20;0.20;;;;;;;;;;1915726;74;26294;-44
2022/05/03 08:04:24;;;;;;;0.20;0.20;;;;;;;;;;1912342;74;26239;-44
2022/05/03 08:06:51;;;;;;;0.30;0.30;;;;;;;;;;1909329;74;26272;-44
2022/05/03 08:09:20;;;;;;;0.33;0.30;;;;;;;;;;1914170;74;26269;-43
2022/05/03 08:11:47;;;;;;;0.30;0.30;;;;;;;;;;1898339;74;26227;-42
2022/05/03 08:14:14;;;;;;;0.30;0.30;;;;;;;;;;1911479;74;26305;-46
2022/05/03 08:16:41;;;;;;;0.30;0.30;;;;;;;;;;1913782;74;26238;-50
2022/05/03 08:19:09;;;;;;;0.30;0.30;;;;;;;;;;1906986;74;26532;-42
2022/05/03 08:21:36;;;;;;;0.30;0.30;;;;;;;;;;1909438;74;26222;-45
2022/05/03 08:24:04;;;;;;;0.30;0.30;;;;;;;;;;1897072;74;26179;-44
2022/05/03 08:26:33;;;;;;;0.30;0.30;;;;;;;;;;1910236;74;26332;-47
2022/05/03 08:29:01;;;;;;;0.23;0.23;;;;;;;;;;1908754;74;26952;-44
2022/05/03 08:31:28;;;;;;;0.23;0.23;;;;;;;;;;1904986;74;26671;-48
2022/05/03 08:33:55;;;;;;;0.20;0.20;;;;;;;;;;1912211;74;26258;-42
2022/05/03 08:36:23;;;;;;;0.20;0.20;;;;;;;;;;1912020;74;26225;-41
2022/05/03 08:44:21;;;;;;;0.10;0.10;;;;;;;;;;1908340;74;26357;-43
2022/05/03 08:46:50;;;;;;;0.40;0.40;;;;;;;;;;1903296;74;26265;-46
2022/05/03 08:49:17;;;;;;;1.80;0.28;;;;;;;;;;1904087;73;26304;-43
2022/05/03 08:51:44;;;;;;;0.15;0.15;;;;;;;;;;1904509;73;26852;-49
2022/05/03 08:54:12;;;;;;;0.50;0.30;;;;;;;;;;1906432;74;26377;-48
2022/05/03 08:56:40;;;;;;;0.30;0.30;;;;;;;;;;1905864;74;26274;-55
2022/05/03 08:59:08;;;;;;;0.10;0.10;;;;;;;;;;1911113;74;26722;-46
2022/05/03 09:01:41;;;;;;;0.10;0.10;;;;;;;;;;1913644;74;26347;-48
2022/05/03 09:04:06;;;;;;;0.25;0.25;;;;;;;;;;1910338;73;26209;-48
2022/05/03 09:06:47;;;;;;;3.27;0.35;;;;;;;;;;1907203;74;26312;-52
2022/05/03 09:09:15;;;;;;;0.15;0.15;;;;;;;;;;1922182;74;26306;-47
2022/05/03 09:11:46;;;;;;;0.30;0.30;;;;;;;;;;1916944;74;26222;-45
2022/05/03 09:14:15;;;;;;;1.10;0.20;;;;;;;;;;1909763;74;26247;-45
2022/05/03 09:16:51;;;;;;;0.30;0.20;;;;;;;;;;1918041;74;26267;-50
2022/05/03 09:19:23;;;;;;;0.33;0.30;;;;;;;;;;1924372;74;26246;-42
2022/05/03 09:24:55;;;;;;;0.17;0.17;;;;;;;;;;1891011;75;26312;-45
2022/05/03 09:27:23;;;;;;;0.50;0.30;;;;;;;;;;1891811;75;26342;-42
2022/05/03 09:30:08;;;;;;;0.53;0.30;;;;;;;;;;1844620;77;26334;-48
2022/05/03 09:32:44;;;;;;;0.20;0.20;;;;;;;;;;1872432;76;26773;-43
2022/05/03 09:35:26;;;;;;;0.10;0.10;;;;;;;;;;1876478;75;26270;-44
2022/05/03 09:37:54;;;;;;;0.20;0.20;;;;;;;;;;1868206;76;26816;-49
2022/05/03 09:40:21;;;;;;;0.30;0.20;;;;;;;;;;1830423;76;31784;-47
2022/05/03 09:42:53;;;;;;;0.25;0.25;;;;;;;;;;1843602;76;26291;-43
2022/05/03 09:45:25;;;;;;;1.85;0.30;;;;;;;;;;1859237;76;26868;-44
2022/05/03 09:47:55;;;;;;;0.30;0.30;;;;;;;;;;1844638;76;26283;-48
2022/05/03 09:50:27;;;;;;;0.10;0.10;;;;;;;;;;1902496;75;26273;-41
2022/05/03 09:52:55;;;;;;;0.25;0.25;;;;;;;;;;1853624;77;26734;-50
2022/05/03 09:55:33;;;;;;;0.45;0.20;;;;;;;;;;1886435;75;26304;-50
2022/05/03 09:58:02;;;;;;;4.28;0.28;;;;;;;;;;1901026;75;26266;-43
2022/05/03 10:00:33;;;;;;;1.07;0.17;;;;;;;;;;1850199;76;26805;-46
2022/05/03 10:03:01;;;;;;;0.60;0.30;;;;;;;;;;1867172;75;26586;-44
2022/05/03 10:05:29;;;;;;;0.28;0.28;;;;;;;;;;1859436;75;26633;-44
2022/05/03 10:07:57;;;;;;;0.82;0.50;;;;;;;;;;1876347;75;26795;-44
2022/05/03 10:10:25;;;;;;;0.30;0.30;;;;;;;;;;1910924;73;26761;-45
2022/05/03 10:12:58;;;;;;;0.23;0.23;;;;;;;;;;1895941;75;26245;-52
2022/05/03 10:20:42;;;;;;;0.20;0.20;;;;;;;;;;1863761;76;26342;-47
2022/05/03 10:23:23;;;;;;;0.30;0.30;;;;;;;;;;1871469;76;26256;-45
2022/05/03 10:25:51;;;;;;;0.20;0.20;;;;;;;;;;1865165;76;28124;-50
2022/05/03 10:28:19;;;;;;;0.20;0.20;;;;;;;;;;1859820;76;26716;-50
2022/05/03 10:31:00;;;;;;;0.10;0.10;;;;;;;;;;1851160;76;26323;-47
2022/05/03 10:33:29;;;;;;;0.20;0.20;;;;;;;;;;1827597;76;26886;-48
2022/05/03 10:35:57;;;;;;;0.15;0.15;;;;;;;;;;1897826;74;26248;-46
2022/05/03 10:38:38;;;;;;;0.23;0.23;;;;;;;;;;1905082;73;27352;-49
2022/05/03 10:41:11;;;;;;;1.10;0.10;;;;;;;;;;1908216;74;26275;-52
2022/05/03 10:43:37;;;;;;;0.20;0.20;;;;;;;;;;1910279;74;26399;-49
2022/05/03 10:46:12;;;;;;;0.20;0.17;;;;;;;;;;1913469;74;26262;-51
2022/05/03 10:48:43;;;;;;;0.20;0.20;;;;;;;;;;1881361;75;26813;-46
2022/05/03 10:51:09;;;;;;;0.20;0.20;;;;;;;;;;1886416;75;26333;-46
2022/05/03 10:53:37;;;;;;;0.20;0.20;;;;;;;;;;1871012;75;26206;-42
2022/05/03 10:56:06;;;;;;;0.20;0.20;;;;;;;;;;1862845;75;28113;-49
2022/05/03 10:58:38;;;;;;;0.20;0.20;;;;;;;;;;1885141;75;26202;-47
2022/05/03 11:01:10;;;;;;;0.20;0.20;;;;;;;;;;1897512;75;25791;-49
2022/05/03 11:03:51;;;;;;;0.20;0.20;;;;;;;;;;1873135;75;26871;-48
2022/05/03 11:06:21;;;;;;;0.20;0.20;;;;;;;;;;1871619;75;26269;-48
2022/05/03 11:08:53;;;;;;;0.15;0.10;;;;;;;;;;1870253;75;26291;-47
2022/05/03 11:11:52;;;;;;;0.13;0.13;;;;;;;;;;1852792;75;26658;-43
2022/05/03 11:14:21;;;;;;;0.23;0.23;;;;;;;;;;1896406;74;26844;-43
2022/05/03 11:16:54;;;;;;;0.10;0.10;;;;;;;;;;1908874;74;26371;-49
2022/05/03 11:19:19;;;;;;;0.13;0.13;;;;;;;;;;1905643;74;26736;-48
2022/05/03 11:21:48;;;;;;;0.10;0.10;;;;;;;;;;1914022;74;26309;-49
2022/05/03 11:24:19;;;;;;;0.28;0.15;;;;;;;;;;1913602;74;26679;-46
2022/05/03 11:26:48;;;;;;;0.20;0.20;;;;;;;;;;1907978;73;26255;-48
2022/05/03 11:29:15;;;;;;;0.10;0.10;;;;;;;;;;1908566;74;26267;-41
2022/05/03 11:31:47;;;;;;;0.17;0.17;;;;;;;;;;1913416;74;26245;-45
2022/05/03 11:34:14;;;;;;;0.20;0.20;;;;;;;;;;1902764;74;26205;-46
2022/05/03 11:36:50;;;;;;;0.10;0.10;;;;;;;;;;1894753;74;25659;-44
2022/05/03 11:39:18;;;;;;;0.20;0.20;;;;;;;;;;1906341;74;26784;-45
2022/05/03 11:41:46;;;;;;;0.65;0.23;;;;;;;;;;1911707;73;26253;-41
2022/05/03 11:44:14;;;;;;;0.10;0.10;;;;;;;;;;1913236;74;26276;-45
2022/05/03 11:46:43;;;;;;;0.20;0.20;;;;;;;;;;1905990;74;26774;-41
2022/05/03 11:49:12;;;;;;;0.10;0.10;;;;;;;;;;1900151;74;26336;-47
2022/05/03 11:57:13;;;;;;;0.20;0.20;;;;;;;;;;1929478;74;26820;-43
2022/05/03 11:59:41;;;;;;;0.20;0.20;;;;;;;;;;1906900;73;26250;-49
2022/05/03 12:02:27;;;;;;;0.20;0.20;;;;;;;;;;1909578;74;26815;-46
2022/05/03 12:05:10;;;;;;;0.20;0.20;;;;;;;;;;1919291;74;26245;-44
2022/05/03 12:07:38;;;;;;;0.15;0.15;;;;;;;;;;1904179;74;26742;-44
2022/05/03 12:10:16;;;;;;;0.43;0.10;;;;;;;;;;1898852;74;28127;-43
2022/05/03 12:12:43;;;;;;;0.10;0.10;;;;;;;;;;1920623;74;26714;-50
2022/05/03 12:15:15;;;;;;;0.23;0.23;;;;;;;;;;1907256;74;26756;-50
2022/05/03 12:17:52;;;;;;;0.10;0.10;;;;;;;;;;1914696;74;26261;-47
2022/05/03 12:20:20;;;;;;;0.20;0.20;;;;;;;;;;1914808;74;26230;-45
2022/05/03 12:22:49;;;;;;;0.13;0.13;;;;;;;;;;1923498;74;26359;-44
2022/05/03 12:25:18;;;;;;;0.20;0.20;;;;;;;;;;1862055;76;26266;-43
2022/05/03 12:27:49;;;;;;;0.10;0.10;;;;;;;;;;1907503;74;26332;-45
2022/05/03 12:30:17;;;;;;;0.10;0.10;;;;;;;;;;1910829;74;26583;-49
2022/05/03 12:32:44;;;;;;;0.35;0.35;;;;;;;;;;1918705;74;26753;-42
2022/05/03 12:35:11;;;;;;;0.10;0.10;;;;;;;;;;1923440;74;26816;-46
2022/05/03 12:37:51;;;;;;;0.15;0.15;;;;;;;;;;1907903;73;26666;-45
2022/05/03 12:40:26;;;;;;;0.20;0.20;;;;;;;;;;1926341;74;26237;-43
2022/05/03 12:42:54;;;;;;;0.00;0.00;;;;;;;;;;1914422;74;27169;-42
2022/05/03 12:45:22;;;;;;;0.10;0.10;;;;;;;;;;1917492;74;26231;-45
2022/05/03 12:47:51;;;;;;;0.17;0.17;;;;;;;;;;1916768;74;26254;-44
2022/05/03 12:50:20;;;;;;;0.20;0.20;;;;;;;;;;1916248;74;26627;-44
2022/05/03 12:52:47;;;;;;;0.47;0.13;;;;;;;;;;1913799;74;26811;-44
2022/05/03 12:55:15;;;;;;;0.10;0.10;;;;;;;;;;1912289;74;26274;-51
2022/05/03 13:00:29;;;;;;;0.45;0.13;;;;;;;;;;1908801;74;26352;-45
2022/05/03 13:03:00;;;;;;;0.15;0.15;;;;;;;;;;1912625;73;26756;-42
2022/05/03 13:05:25;;;;;;;0.17;0.17;;;;;;;;;;1908799;73;26325;-45
2022/05/03 13:07:53;;;;;;;0.20;0.20;;;;;;;;;;1904896;74;26779;-45
2022/05/03 13:10:20;;;;;;;0.30;0.30;;;;;;;;;;1922114;74;26371;-42
2022/05/03 13:12:47;;;;;;;0.30;0.30;;;;;;;;;;1921990;74;26241;-43
2022/05/03 13:15:15;;;;;;;0.05;0.05;;;;;;;;;;1914545;74;26347;-42
2022/05/03 13:17:42;;;;;;;0.20;0.20;;;;;;;;;;1913447;74;26241;-45
2022/05/03 13:20:10;;;;;;;1.00;0.20;;;;;;;;;;1920711;74;26243;-44
2022/05/03 13:22:37;;;;;;;0.10;0.10;;;;;;;;;;1921160;74;26195;-44
2022/05/03 13:25:05;;;;;;;0.23;0.23;;;;;;;;;;1921786;74;26294;-41
2022/05/03 13:27:32;;;;;;;0.30;0.30;;;;;;;;;;1913218;74;26561;-47
2022/05/03 13:29:59;;;;;;;0.10;0.10;;;;;;;;;;1911531;74;26851;-48
2022/05/03 13:32:28;;;;;;;0.13;0.13;;;;;;;;;;1917735;73;26706;-46
2022/05/03 13:34:56;;;;;;;0.20;0.20;;;;;;;;;;1881229;74;26707;-49
2022/05/03 13:40:43;;;;;;;0.30;0.30;;;;;;;;;;1917992;73;26354;-45
2022/05/03 13:42:48;;;;;;;0.20;0.20;;;;;;;;;;1906473;74;26887;-44
2022/05/03 13:45:15;;;;;;;0.10;0.10;;;;;;;;;;1911871;74;26268;-45
2022/05/03 13:47:43;;;;;;;0.10;0.10;;;;;;;;;;1916509;74;26269;-47
2022/05/03 13:50:11;;;;;;;0.23;0.23;;;;;;;;;;1918344;74;26327;-41
2022/05/03 13:52:39;;;;;;;0.20;0.20;;;;;;;;;;1919113;74;26255;-45
2022/05/03 13:55:07;;;;;;;0.20;0.20;;;;;;;;;;1918397;74;26787;-49
2022/05/03 13:57:35;;;;;;;7.62;0.30;;;;;;;;;;1918378;74;26576;-50
2022/05/03 14:00:04;;;;;;;1.10;0.10;;;;;;;;;;1921272;74;26553;-50
2022/05/03 14:02:31;;;;;;;2.20;0.20;;;;;;;;;;1911990;73;26264;-46
2022/05/03 14:04:58;;;;;;;0.25;0.25;;;;;;;;;;1924738;74;26222;-48
2022/05/03 14:07:26;;;;;;;0.20;0.20;;;;;;;;;;1924616;74;26706;-45
2022/05/03 14:09:53;;;;;;;0.55;0.20;;;;;;;;;;1905342;74;26647;-47
2022/05/03 14:12:20;;;;;;;1.17;0.25;;;;;;;;;;1917897;73;26809;-42
2022/05/03 14:14:47;;;;;;;0.20;0.20;;;;;;;;;;1913455;74;26731;-46
2022/05/03 14:17:15;;;;;;;0.20;0.20;;;;;;;;;;1921974;74;26234;-47
2022/05/03 14:19:42;;;;;;;2.40;0.40;;;;;;;;;;1908879;74;38243;-44
2022/05/03 14:22:10;;;;;;;3.02;0.30;;;;;;;;;;1922375;74;26791;-43
2022/05/03 14:24:37;;;;;;;0.55;0.30;;;;;;;;;;1922483;74;26234;-46
2022/05/03 14:27:05;;;;;;;0.35;0.35;;;;;;;;;;1918405;74;26296;-49
2022/05/03 14:29:32;;;;;;;0.40;0.40;;;;;;;;;;1914911;74;26675;-46
2022/05/03 14:31:59;;;;;;;0.20;0.20;;;;;;;;;;1915661;74;26660;-45
2022/05/03 14:34:27;;;;;;;0.30;0.30;;;;;;;;;;1910155;74;27831;-50
2022/05/03 14:36:54;;;;;;;0.23;0.20;;;;;;;;;;1875973;75;26697;-43
2022/05/03 14:39:24;;;;;;;4.03;0.25;;;;;;;;;;1858230;76;26250;-44
2022/05/03 14:41:51;;;;;;;0.30;0.30;;;;;;;;;;1888186;75;26395;-44
2022/05/03 14:44:19;;;;;;;0.20;0.20;;;;;;;;;;1883460;75;26628;-44
2022/05/03 14:46:47;;;;;;;0.20;0.20;;;;;;;;;;1881441;76;26342;-47
2022/05/03 14:49:14;;;;;;;0.30;0.30;;;;;;;;;;1888807;75;26689;-46
2022/05/03 14:51:41;;;;;;;1.65;0.20;;;;;;;;;;1882754;75;26353;-45
2022/05/03 14:54:09;;;;;;;0.30;0.20;;;;;;;;;;1886946;75;26276;-47
2022/05/03 15:04:54;;;;;;;0.17;0.17;;;;;;;;;;1872740;75;26662;-50
2022/05/03 15:07:22;;;;;;;0.13;0.13;;;;;;;;;;1871945;75;26280;-46
2022/05/03 15:09:49;;;;;;;0.30;0.30;;;;;;;;;;1848931;76;26349;-46
2022/05/03 15:12:16;;;;;;;0.30;0.30;;;;;;;;;;1868348;76;26303;-47
2022/05/03 15:14:43;;;;;;;0.15;0.15;;;;;;;;;;1851908;76;26273;-46
2022/05/03 15:17:11;;;;;;;0.30;0.30;;;;;;;;;;1841982;77;26319;-44
2022/05/03 15:19:38;;;;;;;0.20;0.20;;;;;;;;;;1843490;76;26308;-47
2022/05/03 15:22:05;;;;;;;0.23;0.20;;;;;;;;;;1913304;73;26219;-43
2022/05/03 15:24:35;;;;;;;0.30;0.30;;;;;;;;;;1908600;74;26821;-44
2022/05/03 15:27:07;;;;;;;0.20;0.20;;;;;;;;;;1903085;74;26243;-45
2022/05/03 15:29:35;;;;;;;0.50;0.50;;;;;;;;;;1905237;74;26746;-43
2022/05/03 15:32:20;;;;;;;0.10;0.10;;;;;;;;;;1910308;74;26327;-46
2022/05/03 15:34:48;;;;;;;0.20;0.20;;;;;;;;;;1894672;74;26312;-47
2022/05/03 15:37:15;;;;;;;0.23;0.23;;;;;;;;;;1882251;74;26346;-46
2022/05/03 15:39:42;;;;;;;0.30;0.30;;;;;;;;;;1915660;74;26338;-50